Latest Weather Observations for East Sale

IDV60801

Issued at 8:32 am EST Thursday 7 September 2017 (issued every 30 minutes, with the page automatically refreshed every 10 minutes)

About weather observations | Map of weather stations | Latest weather observations for VIC | Other Formats
Station Details ID: 085072 Name: EAST SALE AIRPORT Lat: -38.12 Lon: 147.13 Height: 4.6 m
Data from the previous 72 hours. | See also: Recent months at East Sale
Date/Time
EST
Temp
°C
App
Temp
°C
Dew
Point
°C
Rel
Hum
%
Delta-T
°C
Wind Press
QNH
hPa
Press
MSL
hPa
Rain since
9am
mm
Dir  Spd
km/h
Gust
km/h
Spd
kts
Gust
kts
07/08:00am 10.9 6.7 5.7 70 2.4 NW 17 24 9 13 1015.8 - -
07/07:30am 10.1 5.3 4.7 69 2.4 WNW 19 30 10 16 1015.6 - -
07/07:00am 9.2 5.6 4.8 74 2.0 WNW 13 20 7 11 1015.5 - -
07/06:30am 7.7 3.5 3.7 76 1.7 NW 15 22 8 12 1015.2 - -
07/06:00am 8.6 3.8 4.6 76 1.8 WNW 19 28 10 15 1015.2 - -
07/05:30am 8.0 3.5 4.0 76 1.7 WNW 17 22 9 12 1015.1 - -
07/05:00am 7.9 3.1 4.5 79 1.5 WNW 19 24 10 13 1014.8 - -
07/04:30am 8.5 3.4 4.3 75 1.8 WNW 20 26 11 14 1014.6 - -
07/04:00am 8.7 3.8 4.9 77 1.7 WNW 20 30 11 16 1014.6 - -
07/03:30am 9.2 3.8 4.6 73 2.0 WNW 22 30 12 16 1014.7 - -
07/03:00am 9.0 4.2 5.4 78 1.6 W 20 30 11 16 1014.6 - 0.0
07/02:30am 9.0 4.2 4.8 75 1.9 W 19 24 10 13 1014.6 - -
07/02:00am 8.8 4.9 5.5 80 1.5 W 15 20 8 11 1014.9 - -
07/01:30am 9.2 4.8 5.0 75 1.9 W 17 20 9 11 1015.1 - -
07/01:00am 9.1 4.9 5.7 79 1.5 W 17 24 9 13 1015.1 - -
07/12:30am 10.0 5.8 5.6 74 2.0 WNW 17 22 9 12 1014.8 - -
07/12:00am 10.2 6.2 6.5 78 1.7 WNW 17 20 9 11 1014.8 - -
 
Date/Time
EST
Temp
°C
App
Temp
°C
Dew
Point
°C
Rel
Hum
%
Delta-T
°C
Wind Press
QNH
hPa
Press
MSL
hPa
Rain since
9am
mm
Dir  Spd
km/h
Gust
km/h
Spd
kts
Gust
kts
06/11:30pm 10.6 6.5 6.2 74 2.0 W 17 24 9 13 1015.0 - -
06/11:00pm 10.1 6.5 6.8 80 1.6 W 15 22 8 12 1015.0 - -
06/10:30pm 10.1 6.0 6.3 77 1.8 W 17 22 9 12 1014.8 - -
06/10:00pm 10.0 6.1 7.3 83 1.3 W 17 20 9 11 1014.9 - -
06/09:30pm 10.2 6.7 7.1 81 1.5 W 15 20 8 11 1014.7 - -
06/09:00pm 9.8 6.8 7.9 88 0.9 W 13 17 7 9 1014.5 - 2.0
06/08:30pm 10.2 6.4 7.4 83 1.3 W 17 22 9 12 1014.4 - -
06/08:00pm 10.0 6.8 8.3 89 0.8 WSW 15 20 8 11 1014.3 - -
06/07:30pm 10.3 6.9 7.5 83 1.3 W 15 20 8 11 1013.9 - -
06/07:00pm 10.1 5.5 8.2 88 0.9 W 22 30 12 16 1013.7 - -
06/06:46pm 10.2 5.2 8.0 86 1.1 W 24 33 13 18 1013.7 - -
06/06:32pm 10.1 5.1 8.0 87 1.0 WSW 24 41 13 22 1013.6 - -
06/06:30pm 10.2 5.5 7.8 85 1.2 WSW 22 33 12 18 1013.6 - -
06/06:00pm 11.4 6.8 6.3 71 2.4 W 20 35 11 19 1013.1 - -
06/05:30pm 12.1 4.5 5.9 66 2.9 W 35 56 19 30 1012.5 - -
06/05:22pm 12.4 6.1 5.8 64 3.1 W 28 56 15 30 1012.3 - -
06/05:00pm 12.1 6.4 6.8 70 2.5 WNW 26 39 14 21 1012.1 - -
06/04:30pm 12.6 5.5 6.4 66 2.9 WNW 33 48 18 26 1011.9 - -
06/04:00pm 10.8 5.6 8.7 87 1.0 W 26 39 14 21 1011.8 - -
06/03:46pm 10.8 3.7 8.0 83 1.4 W 35 52 19 28 1011.7 - -
06/03:30pm 13.1 5.2 6.2 63 3.3 WNW 37 54 20 29 1011.4 - -
06/03:23pm 13.1 5.5 6.0 62 3.4 W 35 54 19 29 1011.3 - -
06/03:00pm 13.0 - 6.6 65 3.1 - - - - - - - -
06/02:35pm 12.3 4.7 7.4 72 2.4 W 37 57 20 31 1011.1 - -
06/02:00pm 13.2 4.6 6.3 63 3.3 W 41 65 22 35 1011.1 1011.1 0.4
06/01:30pm 12.3 4.3 7.4 72 2.4 W 39 61 21 33 1011.1 1011.1 0.4
06/01:04pm 12.4 5.3 6.5 67 2.8 WNW 33 52 18 28 1011.1 1011.1 0.4
06/01:00pm 12.2 5.1 6.5 68 2.7 WNW 33 50 18 27 1011.3 1011.3 0.4
06/12:35pm 11.3 4.3 6.0 70 2.5 W 32 50 17 27 1011.3 1011.3 0.4
06/12:30pm 11.6 4.1 6.1 69 2.6 W 35 50 19 27 1011.2 1011.2 0.4
06/12:00pm 11.7 3.7 5.8 67 2.7 WNW 37 57 20 31 1011.3 1011.3 0.4
06/11:53am 11.6 4.5 5.7 67 2.7 WNW 32 50 17 27 1011.2 1011.2 0.4
06/11:30am 10.5 3.4 6.3 75 2.0 W 33 44 18 24 1011.7 1011.7 0.2
06/11:02am 12.0 4.8 5.0 62 3.2 W 32 50 17 27 1011.2 1011.2 0.0
06/11:00am 12.1 5.0 5.5 64 3.1 W 32 46 17 25 1011.3 1011.3 0.0
06/10:31am 12.1 5.3 5.0 62 3.3 W 30 52 16 28 1010.9 1010.9 0.0
06/10:30am 12.1 5.3 5.0 62 3.3 W 30 39 16 21 1011.0 1011.0 0.0
06/10:21am 11.1 3.9 4.8 65 2.9 W 32 50 17 27 1011.1 1011.1 0.0
06/10:00am 11.5 3.6 4.3 61 3.2 WNW 35 48 19 26 1011.0 1011.0 0.0
06/09:34am 10.7 3.2 3.7 62 3.1 WNW 32 50 17 27 1011.0 1011.0 0.0
06/09:30am 10.8 3.8 4.0 63 3.0 WNW 30 41 16 22 1010.9 1010.9 0.0
06/09:08am 10.8 2.8 3.8 62 3.1 WNW 35 57 19 31 1010.6 1010.6 0.0
06/09:00am 11.2 3.3 4.4 63 3.1 WNW 35 56 19 30 1010.4 1010.4 -
06/08:30am 10.2 3.5 3.9 65 2.8 W 28 48 15 26 1010.3 1010.3 -
06/08:15am 9.8 - - - - WNW 28 48 15 26 1010.1 1010.1 -
06/08:00am 9.4 - - - - W 28 39 15 21 1010.0 1010.0 -
06/07:30am 8.9 - - - - W 28 41 15 22 1009.9 1009.9 -
06/07:25am 9.0 - - - - W 28 46 15 25 1009.8 1009.8 -
06/07:00am 8.2 - - - - W 24 35 13 19 1009.5 1009.5 -
06/06:30am 8.4 - - - - W 28 41 15 22 1008.8 1008.8 -
06/06:00am 8.2 - - - - W 28 41 15 22 1008.4 1008.4 -
06/05:44am 8.2 - - - - W 28 48 15 26 1008.5 1008.5 -
06/05:30am 8.3 - - - - WNW 30 43 16 23 1008.2 1008.2 -
06/05:03am 8.3 - - - - W 30 48 16 26 1008.0 1008.0 -
06/05:00am 8.3 - - - - W 32 48 17 26 1008.1 1008.1 -
06/04:36am 8.0 - - - - WNW 33 52 18 28 1007.5 1007.5 -
06/04:30am 8.1 - - - - WNW 35 52 19 28 1007.4 1007.4 -
06/04:08am 8.0 - - - - WNW 32 52 17 28 1007.2 1007.2 -
06/04:00am 7.9 - - - - WNW 30 44 16 24 1007.1 1007.1 -
06/03:30am 7.8 - - - - WNW 32 43 17 23 1007.1 1007.1 -
06/03:00am 7.3 - - - - WNW 26 35 14 19 1007.1 1007.1 0.8
06/02:30am 6.8 - - - - WNW 26 37 14 20 1007.3 1007.3 -
06/02:00am 6.8 - - - - WNW 30 48 16 26 1007.1 1007.1 -
06/01:53am 7.0 - - - - WNW 30 48 16 26 1007.1 1007.1 -
06/01:30am 7.0 - - - - WNW 32 41 17 22 1007.2 1007.2 -
06/01:19am 6.9 - - - - WNW 32 50 17 27 1007.4 1007.4 -
06/01:00am 7.0 - - - - WNW 33 46 18 25 1007.5 1007.5 -
06/12:45am 7.1 - - - - W 28 46 15 25 1007.9 1007.9 -
06/12:30am 6.9 - - - - W 24 35 13 19 1007.8 1007.8 -
06/12:00am 6.7 - - - - W 20 32 11 17 1007.7 1007.7 -
 
Date/Time
EST
Temp
°C
App
Temp
°C
Dew
Point
°C
Rel
Hum
%
Delta-T
°C
Wind Press
QNH
hPa
Press
MSL
hPa
Rain since
9am
mm
Dir  Spd
km/h
Gust
km/h
Spd
kts
Gust
kts
05/11:33pm 6.4 - - - - W 28 46 15 25 1007.5 1007.5 -
05/11:30pm 6.6 - - - - W 26 46 14 25 1007.5 1007.5 -
05/11:00pm 5.5 - - - - W 22 32 12 17 1007.5 1007.5 -
05/10:30pm 5.5 - - - - WNW 24 33 13 18 1007.3 1007.3 -
05/10:00pm 5.8 - - - - W 32 44 17 24 1007.4 1007.4 -
05/09:30pm 5.8 - - - - WNW 37 57 20 31 1007.2 1007.2 -
05/09:24pm 5.8 - - - - WNW 28 52 15 28 1007.1 1007.1 -
05/09:00pm 5.0 - - - - W 20 28 11 15 1007.2 1007.2 -
05/08:30pm 5.1 - - - - WNW 22 33 12 18 1006.6 1006.6 -
05/08:00pm 5.4 - - - - W 32 43 17 23 1006.8 1006.8 -
05/07:55pm 5.5 - - - - W 33 48 18 26 1006.8 1006.8 -
05/07:52pm 5.5 - - - - W 35 54 19 29 1006.8 1006.8 -
05/07:43pm 5.6 - - - - WSW 35 50 19 27 1006.5 1006.5 -
05/07:37pm 6.1 - - - - WSW 30 50 16 27 1006.4 1006.4 -
05/07:30pm 6.3 - - - - W 30 41 16 22 1006.2 1006.2 -
05/07:23pm 6.3 - - - - W 30 43 16 23 1005.8 1005.8 -
05/07:00pm 6.4 - - - - WSW 22 33 12 18 1005.8 1005.8 -
05/06:59pm 6.3 - - - - WSW 20 33 11 18 1005.7 1005.7 -
05/06:39pm 6.7 - - - - W 22 33 12 18 1004.9 1004.9 -
05/06:30pm 6.6 - - - - W 19 28 10 15 1004.9 1004.9 -
05/06:25pm 6.6 - - - - W 20 33 11 18 1005.0 1005.0 -
05/06:00pm 6.9 - - - - W 24 37 13 20 1004.6 1004.6 -
05/05:47pm 7.0 - - - - WSW 26 37 14 20 1004.5 1004.5 -
05/05:33pm 7.3 - - - - WSW 32 43 17 23 1004.5 1004.5 -
05/05:30pm 7.5 - - - - - - - - - 1004.4 1004.4 -
05/05:00pm 10.1 - 2.7 60 3.2 - - - - - - - 0.0
05/04:30pm 10.2 - 2.6 59 3.2 - - - - - - - 0.0
05/04:00pm 9.3 - 4.1 70 2.3 - - - - - - - 0.0
05/03:30pm 9.9 - 3.6 65 2.7 - - - - - - - 0.0
05/03:00pm 11.4 - 1.6 51 4.1 - - - - - - - 0.0
05/02:30pm 12.4 - 1.7 48 4.6 - - - - - - - 0.0
05/02:00pm 11.8 4.0 2.0 51 4.2 WNW 32 44 17 24 1003.7 1003.7 0.0
05/01:30pm 10.8 1.2 1.4 52 3.9 WNW 41 69 22 37 1004.3 1004.3 0.0
05/01:00pm 12.0 2.0 1.1 47 4.6 WNW 43 63 23 34 1004.5 1004.5 0.0
05/12:30pm 12.4 1.8 1.1 46 4.8 WNW 46 65 25 35 1005.0 1005.0 0.0
05/12:00pm 12.4 3.0 -0.1 42 5.2 WNW 39 54 21 29 1004.9 1004.9 0.0
05/11:30am 11.3 0.9 -0.5 44 4.7 WNW 44 67 24 36 1005.0 1005.0 0.0
05/11:00am 10.4 0.2 -0.1 48 4.2 WNW 43 72 23 39 1005.5 1005.5 0.0
05/10:30am 10.7 0.3 -0.1 47 4.4 WNW 44 61 24 33 1005.2 1005.2 0.0
05/10:00am 10.3 0.0 0.6 51 4.0 WNW 44 67 24 36 1005.3 1005.3 0.0
05/09:41am 9.9 1.7 0.3 51 3.9 WNW 33 70 18 38 1005.0 1005.0 0.0
05/09:36am 9.9 1.7 0.3 51 3.9 WNW 33 52 18 28 1005.2 1005.2 0.0
05/09:30am 9.6 1.0 0.2 52 3.8 WNW 35 52 19 28 1005.1 1005.1 0.0
05/09:00am 9.6 1.1 0.8 54 3.6 WNW 35 57 19 31 1005.0 1005.0 0.4
05/08:55am 9.2 -0.1 0.4 54 3.5 WNW 39 57 21 31 1005.0 1005.0 0.4
05/08:30am 8.7 - 0.4 56 3.3 - - - - - - - 0.4
05/08:00am 7.9 -1.1 -0.1 57 3.1 NW 37 57 20 31 1004.9 1004.9 0.4
05/07:33am 7.3 -0.7 0.3 61 2.8 WNW 32 50 17 27 1004.8 1004.8 0.4
05/07:30am 7.1 -0.9 0.3 62 2.7 WNW 32 44 17 24 1004.8 1004.8 0.4
05/07:00am 6.0 -1.2 0.6 68 2.1 WNW 28 44 15 24 1004.4 1004.4 0.4
05/06:30am 5.7 -2.8 1.1 72 1.8 WNW 35 54 19 29 1004.3 1004.3 0.4
05/06:00am 5.7 -2.8 1.2 73 1.8 WNW 35 59 19 32 1004.2 1004.2 0.4
05/05:42am 5.4 -1.7 1.3 75 1.6 WNW 28 50 15 27 1004.1 1004.1 0.4
05/05:30am 5.1 -1.5 1.8 79 1.3 WNW 26 35 14 19 1004.0 1004.0 0.4
05/05:00am 5.8 -2.2 1.5 74 1.7 WNW 33 50 18 27 1003.7 1003.7 0.4
05/04:35am 7.0 -0.2 0.7 64 2.5 W 28 46 15 25 1003.4 1003.4 0.4
05/04:30am 7.2 0.3 0.4 62 2.7 W 26 37 14 20 1003.4 1003.4 0.4
05/04:00am 7.0 0.1 0.2 62 2.7 WNW 26 44 14 24 1002.9 1002.9 0.4
05/03:36am 6.0 -1.1 1.2 71 1.9 WNW 28 46 15 25 1002.3 1002.3 0.4
05/03:30am 6.2 -1.3 0.9 69 2.1 WNW 30 46 16 25 1002.3 1002.3 0.4
05/03:21am 6.5 -0.7 0.6 66 2.3 WNW 28 46 15 25 1002.3 1002.3 0.4
05/03:00am 7.3 -0.4 -0.4 58 3.0 WNW 30 39 16 21 1002.6 1002.6 0.4
05/02:30am 7.3 -2.2 -0.6 57 3.0 WNW 39 56 21 30 1002.5 1002.5 0.4
05/02:24am 7.3 -1.0 -0.6 57 3.0 WNW 33 56 18 30 1002.6 1002.6 0.4
05/02:00am 6.8 -0.1 0.3 63 2.6 WNW 26 39 14 21 1003.1 1003.1 0.4
05/01:30am 7.1 1.2 -0.6 58 3.0 NW 20 28 11 15 1003.3 1003.3 0.4
05/01:00am 5.7 0.2 0.7 70 2.0 NW 19 26 10 14 1003.5 1003.5 0.4
05/12:30am 5.8 -0.2 0.8 70 2.0 NW 22 30 12 16 1003.4 1003.4 0.4
05/12:00am 6.4 0.2 -0.1 63 2.5 NW 22 32 12 17 1003.6 1003.6 0.4
 
Date/Time
EST
Temp
°C
App
Temp
°C
Dew
Point
°C
Rel
Hum
%
Delta-T
°C
Wind Press
QNH
hPa
Press
MSL
hPa
Rain since
9am
mm
Dir  Spd
km/h
Gust
km/h
Spd
kts
Gust
kts
04/11:32pm 7.0 -0.7 -0.2 60 2.8 WNW 30 48 16 26 1003.5 1003.5 0.4
04/11:30pm 7.0 -0.3 -0.2 60 2.8 WNW 28 41 15 22 1003.5 1003.5 0.4
04/11:00pm 7.0 -0.7 0.2 62 2.7 WNW 30 43 16 23 1003.6 1003.6 0.4
04/10:54pm 7.0 -0.2 0.5 63 2.6 WNW 28 43 15 23 1003.8 1003.8 0.4
04/10:30pm 5.8 0.4 1.5 74 1.7 NW 19 24 10 13 1003.9 1003.9 0.4
04/10:00pm 6.1 0.2 1.8 74 1.7 NW 22 30 12 16 1004.1 1004.1 0.4
04/09:30pm 6.4 0.9 2.1 74 1.7 NW 20 33 11 18 1004.3 1004.3 0.4
04/09:00pm 6.8 -0.6 1.9 71 2.0 WNW 30 43 16 23 1004.3 1004.3 0.4
04/08:48pm 7.0 0.0 1.9 70 2.1 NW 28 50 15 27 1004.2 1004.2 0.4
04/08:30pm 6.5 1.1 2.2 74 1.8 NW 20 33 11 18 1004.5 1004.5 0.4
04/08:00pm 6.6 1.1 2.1 73 1.8 NW 20 26 11 14 1004.2 1004.2 0.4
04/07:30pm 7.2 1.0 1.9 69 2.2 NW 24 32 13 17 1004.2 1004.2 0.4
04/07:00pm 6.5 0.8 2.6 76 1.6 NW 22 28 12 15 1003.8 1003.8 0.4
04/06:30pm 6.7 1.0 3.1 78 1.5 WNW 22 30 12 16 1003.4 1003.4 0.4
04/06:00pm 7.4 0.6 3.3 75 1.7 WNW 28 39 15 21 1003.6 1003.6 0.4
04/05:30pm 7.3 1.7 3.5 77 1.6 W 22 32 12 17 1003.7 1003.7 0.4
04/05:00pm 8.4 3.2 3.8 73 2.0 WNW 20 32 11 17 1003.1 1003.1 0.0
04/04:30pm 8.3 0.6 3.6 72 2.0 W 33 56 18 30 1003.2 1003.2 0.0
04/04:25pm 8.6 0.9 3.4 70 2.2 W 33 56 18 30 1003.2 1003.2 0.0
04/04:00pm 10.2 4.7 2.1 57 3.4 WNW 20 33 11 18 1002.5 1002.5 0.0
04/03:31pm 11.1 3.2 2.4 55 3.7 NW 33 57 18 31 1002.2 1002.2 0.0
04/03:30pm 11.1 3.4 2.2 54 3.8 NW 32 44 17 24 1002.2 1002.2 0.0
04/03:00pm 12.1 4.6 3.3 55 3.9 NW 32 43 17 23 1002.4 1002.4 0.0
04/02:30pm 11.4 6.7 3.4 58 3.5 NW 17 26 9 14 1002.7 1002.7 0.0
04/02:00pm 11.1 5.5 3.2 58 3.5 WNW 22 33 12 18 1003.3 1003.3 0.0
04/01:30pm 10.3 3.2 3.3 62 3.0 WNW 30 52 16 28 1003.4 1003.4 0.0
04/01:00pm 9.5 0.0 1.9 59 3.2 WNW 41 63 22 34 1003.5 1003.5 0.0
04/12:34pm 12.8 3.2 1.2 45 4.9 WNW 41 59 22 32 1003.2 1003.2 0.0
04/12:30pm 12.5 2.2 0.6 44 5.0 NW 44 57 24 31 1003.3 1003.3 0.0
04/12:00pm 12.4 3.4 -0.1 42 5.2 WNW 37 57 20 31 1003.6 1003.6 0.0
04/11:30am 12.9 3.7 -1.1 38 5.6 WNW 37 59 20 32 1003.5 1003.5 0.0
04/11:00am 13.2 3.4 -0.1 40 5.5 WNW 41 61 22 33 1003.9 1003.9 0.0
04/10:30am 11.5 2.0 -0.9 42 5.0 WNW 39 63 21 34 1003.9 1003.9 0.0
04/10:07am 12.0 5.4 4.0 58 3.6 WNW 28 48 15 26 1003.9 1003.9 0.0
04/10:00am 11.3 5.4 3.8 60 3.3 WNW 24 35 13 19 1004.1 1004.1 0.0
04/09:30am 8.5 0.4 3.4 70 2.2 W 35 52 19 28 1004.6 1004.6 0.0
04/09:06am 8.9 2.2 3.7 70 2.3 W 28 46 15 25 1004.5 1004.5 0.0
04/09:00am 9.1 2.8 3.7 69 2.4 W 26 35 14 19 1004.4 1004.4 1.0

Other Formats:

Comma delimited format used in spreadsheet applications
http://www.bom.gov.au/fwo/IDV60801/IDV60801.94907.axf

JavaScript Object Notation format (JSON) in row-major order
http://www.bom.gov.au/fwo/IDV60801/IDV60801.94907.json